sensor_id;sensor_type;location;lat;lon;timestamp;P1;durP1;ratioP1;P2;durP2;ratioP2
359;SDS011;168;48.872;9.226;2024-01-07T00:01:07;25.13;;;18.07;;
359;SDS011;168;48.872;9.226;2024-01-07T00:03:35;28.53;;;18.70;;
359;SDS011;168;48.872;9.226;2024-01-07T00:06:03;27.90;;;19.13;;
359;SDS011;168;48.872;9.226;2024-01-07T00:08:31;25.47;;;16.73;;
359;SDS011;168;48.872;9.226;2024-01-07T00:10:58;26.93;;;18.00;;
359;SDS011;168;48.872;9.226;2024-01-07T00:13:25;23.17;;;17.10;;
359;SDS011;168;48.872;9.226;2024-01-07T00:15:54;27.40;;;17.80;;
359;SDS011;168;48.872;9.226;2024-01-07T00:18:22;25.77;;;17.87;;
359;SDS011;168;48.872;9.226;2024-01-07T00:20:49;27.57;;;20.00;;
359;SDS011;168;48.872;9.226;2024-01-07T00:23:17;21.97;;;16.97;;
359;SDS011;168;48.872;9.226;2024-01-07T00:25:46;24.87;;;18.00;;
359;SDS011;168;48.872;9.226;2024-01-07T00:28:13;23.50;;;17.07;;
359;SDS011;168;48.872;9.226;2024-01-07T00:30:41;23.70;;;17.50;;
359;SDS011;168;48.872;9.226;2024-01-07T00:33:09;24.47;;;17.17;;
359;SDS011;168;48.872;9.226;2024-01-07T00:35:37;23.53;;;18.03;;
359;SDS011;168;48.872;9.226;2024-01-07T00:38:05;26.17;;;18.77;;
359;SDS011;168;48.872;9.226;2024-01-07T00:40:32;22.40;;;17.37;;
359;SDS011;168;48.872;9.226;2024-01-07T00:42:59;28.33;;;18.03;;
359;SDS011;168;48.872;9.226;2024-01-07T00:45:27;25.60;;;17.57;;
359;SDS011;168;48.872;9.226;2024-01-07T00:47:54;24.20;;;17.23;;
359;SDS011;168;48.872;9.226;2024-01-07T00:50:29;23.30;;;16.90;;
359;SDS011;168;48.872;9.226;2024-01-07T00:52:57;24.53;;;16.70;;
359;SDS011;168;48.872;9.226;2024-01-07T00:55:24;23.83;;;16.87;;
359;SDS011;168;48.872;9.226;2024-01-07T00:57:51;23.73;;;16.43;;
359;SDS011;168;48.872;9.226;2024-01-07T01:00:19;22.00;;;15.57;;
359;SDS011;168;48.872;9.226;2024-01-07T01:02:47;26.47;;;18.67;;
359;SDS011;168;48.872;9.226;2024-01-07T01:05:15;22.77;;;17.50;;
359;SDS011;168;48.872;9.226;2024-01-07T01:07:43;21.63;;;16.20;;
359;SDS011;168;48.872;9.226;2024-01-07T01:10:11;22.13;;;16.30;;
359;SDS011;168;48.872;9.226;2024-01-07T01:12:40;23.60;;;17.30;;
359;SDS011;168;48.872;9.226;2024-01-07T01:15:08;29.47;;;19.27;;
359;SDS011;168;48.872;9.226;2024-01-07T01:17:35;27.40;;;18.60;;
359;SDS011;168;48.872;9.226;2024-01-07T01:20:03;21.70;;;16.70;;
359;SDS011;168;48.872;9.226;2024-01-07T01:22:32;23.57;;;16.73;;
359;SDS011;168;48.872;9.226;2024-01-07T01:25:00;25.37;;;18.20;;
359;SDS011;168;48.872;9.226;2024-01-07T01:27:28;29.17;;;19.00;;
359;SDS011;168;48.872;9.226;2024-01-07T01:29:56;31.60;;;20.60;;
359;SDS011;168;48.872;9.226;2024-01-07T01:32:23;28.97;;;20.80;;
359;SDS011;168;48.872;9.226;2024-01-07T01:34:51;34.83;;;21.27;;
359;SDS011;168;48.872;9.226;2024-01-07T01:37:18;27.67;;;18.33;;
359;SDS011;168;48.872;9.226;2024-01-07T01:39:45;30.40;;;19.77;;
359;SDS011;168;48.872;9.226;2024-01-07T01:42:14;31.30;;;21.67;;
359;SDS011;168;48.872;9.226;2024-01-07T01:44:42;33.40;;;21.07;;
359;SDS011;168;48.872;9.226;2024-01-07T01:47:09;32.47;;;19.37;;
359;SDS011;168;48.872;9.226;2024-01-07T01:49:38;28.37;;;19.63;;
359;SDS011;168;48.872;9.226;2024-01-07T01:52:06;32.33;;;22.03;;
359;SDS011;168;48.872;9.226;2024-01-07T01:54:35;29.73;;;21.00;;
359;SDS011;168;48.872;9.226;2024-01-07T01:57:02;29.20;;;20.97;;
359;SDS011;168;48.872;9.226;2024-01-07T01:59:32;34.20;;;23.20;;
359;SDS011;168;48.872;9.226;2024-01-07T02:02:00;31.00;;;22.40;;
359;SDS011;168;48.872;9.226;2024-01-07T02:04:28;31.50;;;22.60;;
359;SDS011;168;48.872;9.226;2024-01-07T02:06:56;29.70;;;21.40;;
359;SDS011;168;48.872;9.226;2024-01-07T02:09:23;31.13;;;22.13;;
359;SDS011;168;48.872;9.226;2024-01-07T02:12:00;30.10;;;22.07;;
359;SDS011;168;48.872;9.226;2024-01-07T02:14:27;34.33;;;23.07;;
359;SDS011;168;48.872;9.226;2024-01-07T02:16:56;30.53;;;21.20;;
359;SDS011;168;48.872;9.226;2024-01-07T02:19:24;30.80;;;23.57;;
359;SDS011;168;48.872;9.226;2024-01-07T02:21:51;30.90;;;23.13;;
359;SDS011;168;48.872;9.226;2024-01-07T02:24:20;28.63;;;20.33;;
359;SDS011;168;48.872;9.226;2024-01-07T02:26:48;30.10;;;21.23;;
359;SDS011;168;48.872;9.226;2024-01-07T02:29:15;36.93;;;22.73;;
359;SDS011;168;48.872;9.226;2024-01-07T02:31:43;29.87;;;21.20;;
359;SDS011;168;48.872;9.226;2024-01-07T02:34:10;28.93;;;21.60;;
359;SDS011;168;48.872;9.226;2024-01-07T02:36:37;28.73;;;21.47;;
359;SDS011;168;48.872;9.226;2024-01-07T02:39:05;31.10;;;21.50;;
359;SDS011;168;48.872;9.226;2024-01-07T02:41:33;36.40;;;22.73;;
359;SDS011;168;48.872;9.226;2024-01-07T02:44:01;30.77;;;22.00;;
359;SDS011;168;48.872;9.226;2024-01-07T02:46:30;30.67;;;22.47;;
359;SDS011;168;48.872;9.226;2024-01-07T02:48:57;30.77;;;22.87;;
359;SDS011;168;48.872;9.226;2024-01-07T02:51:24;31.77;;;22.47;;
359;SDS011;168;48.872;9.226;2024-01-07T02:53:52;30.27;;;23.07;;
359;SDS011;168;48.872;9.226;2024-01-07T02:56:19;30.40;;;22.30;;
359;SDS011;168;48.872;9.226;2024-01-07T02:58:48;31.10;;;22.10;;
359;SDS011;168;48.872;9.226;2024-01-07T03:01:15;32.07;;;23.20;;
359;SDS011;168;48.872;9.226;2024-01-07T03:03:43;31.20;;;22.33;;
359;SDS011;168;48.872;9.226;2024-01-07T03:06:10;30.80;;;21.80;;
359;SDS011;168;48.872;9.226;2024-01-07T03:08:37;31.00;;;21.60;;
359;SDS011;168;48.872;9.226;2024-01-07T03:11:05;29.53;;;21.53;;
359;SDS011;168;48.872;9.226;2024-01-07T03:13:33;30.40;;;23.10;;
359;SDS011;168;48.872;9.226;2024-01-07T03:16:02;26.17;;;20.67;;
359;SDS011;168;48.872;9.226;2024-01-07T03:18:30;30.13;;;22.10;;
359;SDS011;168;48.872;9.226;2024-01-07T03:20:58;30.00;;;21.60;;
359;SDS011;168;48.872;9.226;2024-01-07T03:23:25;28.43;;;21.93;;
359;SDS011;168;48.872;9.226;2024-01-07T03:25:53;31.30;;;22.63;;
359;SDS011;168;48.872;9.226;2024-01-07T03:28:20;30.40;;;22.93;;
359;SDS011;168;48.872;9.226;2024-01-07T03:30:47;31.80;;;22.23;;
359;SDS011;168;48.872;9.226;2024-01-07T03:33:16;27.90;;;21.40;;
359;SDS011;168;48.872;9.226;2024-01-07T03:35:44;30.53;;;21.63;;
359;SDS011;168;48.872;9.226;2024-01-07T03:38:11;28.33;;;21.20;;
359;SDS011;168;48.872;9.226;2024-01-07T03:40:39;28.17;;;20.83;;
359;SDS011;168;48.872;9.226;2024-01-07T03:43:07;26.80;;;18.93;;
359;SDS011;168;48.872;9.226;2024-01-07T03:45:34;25.70;;;20.00;;
359;SDS011;168;48.872;9.226;2024-01-07T03:48:02;30.27;;;21.30;;
359;SDS011;168;48.872;9.226;2024-01-07T03:50:31;28.13;;;18.77;;
359;SDS011;168;48.872;9.226;2024-01-07T03:52:58;31.63;;;20.87;;
359;SDS011;168;48.872;9.226;2024-01-07T03:55:26;32.33;;;21.33;;
359;SDS011;168;48.872;9.226;2024-01-07T03:57:53;30.07;;;21.47;;
359;SDS011;168;48.872;9.226;2024-01-07T04:00:21;29.37;;;20.60;;
359;SDS011;168;48.872;9.226;2024-01-07T04:02:48;31.37;;;21.50;;
359;SDS011;168;48.872;9.226;2024-01-07T04:05:16;27.50;;;19.40;;
359;SDS011;168;48.872;9.226;2024-01-07T04:07:44;26.17;;;17.83;;
359;SDS011;168;48.872;9.226;2024-01-07T04:10:12;28.40;;;19.80;;
359;SDS011;168;48.872;9.226;2024-01-07T04:12:39;28.60;;;18.50;;
359;SDS011;168;48.872;9.226;2024-01-07T04:15:07;27.53;;;19.50;;
359;SDS011;168;48.872;9.226;2024-01-07T04:17:35;26.57;;;18.67;;
359;SDS011;168;48.872;9.226;2024-01-07T04:20:02;28.67;;;19.40;;
359;SDS011;168;48.872;9.226;2024-01-07T04:22:30;27.10;;;18.63;;
359;SDS011;168;48.872;9.226;2024-01-07T04:24:59;24.00;;;15.70;;
359;SDS011;168;48.872;9.226;2024-01-07T04:27:27;26.10;;;17.47;;
359;SDS011;168;48.872;9.226;2024-01-07T04:29:54;29.83;;;18.43;;
359;SDS011;168;48.872;9.226;2024-01-07T04:32:21;23.97;;;16.70;;
359;SDS011;168;48.872;9.226;2024-01-07T04:34:49;25.20;;;18.07;;
359;SDS011;168;48.872;9.226;2024-01-07T04:37:17;27.40;;;16.07;;
359;SDS011;168;48.872;9.226;2024-01-07T04:39:44;23.97;;;16.87;;
359;SDS011;168;48.872;9.226;2024-01-07T04:42:13;27.00;;;16.80;;
359;SDS011;168;48.872;9.226;2024-01-07T04:44:41;25.27;;;17.80;;
359;SDS011;168;48.872;9.226;2024-01-07T04:47:22;24.97;;;15.97;;
359;SDS011;168;48.872;9.226;2024-01-07T04:49:51;23.23;;;14.93;;
359;SDS011;168;48.872;9.226;2024-01-07T04:52:19;25.10;;;15.87;;
359;SDS011;168;48.872;9.226;2024-01-07T04:54:46;23.13;;;15.80;;
359;SDS011;168;48.872;9.226;2024-01-07T04:57:15;23.53;;;14.60;;
359;SDS011;168;48.872;9.226;2024-01-07T04:59:42;24.23;;;15.30;;
359;SDS011;168;48.872;9.226;2024-01-07T05:02:10;22.90;;;14.10;;
359;SDS011;168;48.872;9.226;2024-01-07T05:04:38;19.57;;;14.40;;
359;SDS011;168;48.872;9.226;2024-01-07T05:07:05;24.40;;;14.40;;
359;SDS011;168;48.872;9.226;2024-01-07T05:09:33;24.40;;;15.20;;
359;SDS011;168;48.872;9.226;2024-01-07T05:12:00;20.33;;;14.27;;
359;SDS011;168;48.872;9.226;2024-01-07T05:14:29;21.20;;;14.37;;
359;SDS011;168;48.872;9.226;2024-01-07T05:16:57;22.30;;;13.70;;
359;SDS011;168;48.872;9.226;2024-01-07T05:19:24;23.07;;;15.77;;
359;SDS011;168;48.872;9.226;2024-01-07T05:21:51;23.40;;;15.40;;
359;SDS011;168;48.872;9.226;2024-01-07T05:24:19;22.90;;;14.63;;
359;SDS011;168;48.872;9.226;2024-01-07T05:26:47;21.67;;;14.60;;
359;SDS011;168;48.872;9.226;2024-01-07T05:29:14;20.33;;;14.60;;
359;SDS011;168;48.872;9.226;2024-01-07T05:31:43;21.27;;;13.47;;
359;SDS011;168;48.872;9.226;2024-01-07T05:34:10;19.93;;;14.53;;
359;SDS011;168;48.872;9.226;2024-01-07T05:36:38;20.70;;;13.37;;
359;SDS011;168;48.872;9.226;2024-01-07T05:39:05;22.27;;;14.53;;
359;SDS011;168;48.872;9.226;2024-01-07T05:41:33;21.47;;;14.13;;
359;SDS011;168;48.872;9.226;2024-01-07T05:44:03;19.00;;;14.07;;
359;SDS011;168;48.872;9.226;2024-01-07T05:46:32;21.13;;;15.30;;
359;SDS011;168;48.872;9.226;2024-01-07T05:49:01;24.60;;;15.60;;
359;SDS011;168;48.872;9.226;2024-01-07T05:51:31;19.70;;;14.60;;
359;SDS011;168;48.872;9.226;2024-01-07T05:53:58;20.33;;;12.93;;
359;SDS011;168;48.872;9.226;2024-01-07T05:56:25;18.40;;;14.10;;
359;SDS011;168;48.872;9.226;2024-01-07T05:58:53;28.03;;;15.87;;
359;SDS011;168;48.872;9.226;2024-01-07T06:01:20;22.83;;;14.80;;
359;SDS011;168;48.872;9.226;2024-01-07T06:03:48;18.53;;;13.47;;
359;SDS011;168;48.872;9.226;2024-01-07T06:06:17;21.27;;;14.37;;
359;SDS011;168;48.872;9.226;2024-01-07T06:08:45;20.83;;;13.57;;
359;SDS011;168;48.872;9.226;2024-01-07T06:11:12;16.73;;;13.30;;
359;SDS011;168;48.872;9.226;2024-01-07T06:13:44;19.47;;;14.37;;
359;SDS011;168;48.872;9.226;2024-01-07T06:16:12;16.90;;;13.80;;
359;SDS011;168;48.872;9.226;2024-01-07T06:18:40;19.60;;;13.50;;
359;SDS011;168;48.872;9.226;2024-01-07T06:21:07;18.90;;;14.97;;
359;SDS011;168;48.872;9.226;2024-01-07T06:23:36;18.87;;;14.33;;
359;SDS011;168;48.872;9.226;2024-01-07T06:26:03;18.57;;;14.43;;
359;SDS011;168;48.872;9.226;2024-01-07T06:28:31;19.67;;;14.43;;
359;SDS011;168;48.872;9.226;2024-01-07T06:30:58;15.50;;;13.50;;
359;SDS011;168;48.872;9.226;2024-01-07T06:33:26;18.03;;;14.73;;
359;SDS011;168;48.872;9.226;2024-01-07T06:35:53;16.37;;;13.10;;
359;SDS011;168;48.872;9.226;2024-01-07T06:38:20;16.77;;;12.90;;
359;SDS011;168;48.872;9.226;2024-01-07T06:40:50;15.23;;;13.63;;
359;SDS011;168;48.872;9.226;2024-01-07T06:43:19;15.70;;;13.17;;
359;SDS011;168;48.872;9.226;2024-01-07T06:45:47;14.43;;;11.83;;
359;SDS011;168;48.872;9.226;2024-01-07T06:48:14;14.23;;;12.47;;
359;SDS011;168;48.872;9.226;2024-01-07T06:50:41;15.70;;;12.60;;
359;SDS011;168;48.872;9.226;2024-01-07T06:53:09;14.73;;;12.40;;
359;SDS011;168;48.872;9.226;2024-01-07T06:55:36;13.10;;;10.50;;
359;SDS011;168;48.872;9.226;2024-01-07T06:58:05;13.77;;;10.93;;
359;SDS011;168;48.872;9.226;2024-01-07T07:00:32;12.37;;;10.67;;
359;SDS011;168;48.872;9.226;2024-01-07T07:03:00;14.10;;;10.90;;
359;SDS011;168;48.872;9.226;2024-01-07T07:05:27;13.13;;;10.03;;
359;SDS011;168;48.872;9.226;2024-01-07T07:07:54;11.60;;;10.30;;
359;SDS011;168;48.872;9.226;2024-01-07T07:10:22;12.90;;;8.97;;
359;SDS011;168;48.872;9.226;2024-01-07T07:12:49;9.50;;;7.80;;
359;SDS011;168;48.872;9.226;2024-01-07T07:15:18;10.77;;;9.37;;
359;SDS011;168;48.872;9.226;2024-01-07T07:17:45;12.30;;;8.50;;
359;SDS011;168;48.872;9.226;2024-01-07T07:20:13;9.83;;;8.10;;
359;SDS011;168;48.872;9.226;2024-01-07T07:22:40;7.73;;;6.87;;
359;SDS011;168;48.872;9.226;2024-01-07T07:25:08;11.50;;;8.30;;
359;SDS011;168;48.872;9.226;2024-01-07T07:27:35;8.90;;;8.00;;
359;SDS011;168;48.872;9.226;2024-01-07T07:30:04;9.10;;;7.40;;
359;SDS011;168;48.872;9.226;2024-01-07T07:32:33;12.30;;;9.50;;
359;SDS011;168;48.872;9.226;2024-01-07T07:35:01;12.60;;;8.63;;
359;SDS011;168;48.872;9.226;2024-01-07T07:37:28;8.20;;;7.33;;
359;SDS011;168;48.872;9.226;2024-01-07T07:39:56;9.03;;;8.03;;
359;SDS011;168;48.872;9.226;2024-01-07T07:42:33;8.40;;;7.27;;
359;SDS011;168;48.872;9.226;2024-01-07T07:45:11;10.10;;;7.70;;
359;SDS011;168;48.872;9.226;2024-01-07T07:47:40;9.80;;;8.27;;
359;SDS011;168;48.872;9.226;2024-01-07T07:50:10;9.80;;;8.73;;
359;SDS011;168;48.872;9.226;2024-01-07T07:52:37;10.50;;;7.77;;
359;SDS011;168;48.872;9.226;2024-01-07T07:55:05;9.37;;;7.90;;
359;SDS011;168;48.872;9.226;2024-01-07T07:57:33;10.03;;;7.00;;
359;SDS011;168;48.872;9.226;2024-01-07T08:00:00;9.47;;;7.43;;
359;SDS011;168;48.872;9.226;2024-01-07T08:02:28;7.40;;;6.37;;
359;SDS011;168;48.872;9.226;2024-01-07T08:04:57;8.90;;;6.97;;
359;SDS011;168;48.872;9.226;2024-01-07T08:07:24;8.90;;;6.97;;
359;SDS011;168;48.872;9.226;2024-01-07T08:09:51;8.90;;;6.60;;
359;SDS011;168;48.872;9.226;2024-01-07T08:12:19;10.00;;;7.20;;
359;SDS011;168;48.872;9.226;2024-01-07T08:14:47;8.57;;;7.03;;
359;SDS011;168;48.872;9.226;2024-01-07T08:17:14;9.30;;;7.40;;
359;SDS011;168;48.872;9.226;2024-01-07T08:19:42;9.30;;;7.27;;
359;SDS011;168;48.872;9.226;2024-01-07T08:22:11;8.30;;;7.27;;
359;SDS011;168;48.872;9.226;2024-01-07T08:24:40;9.10;;;7.00;;
359;SDS011;168;48.872;9.226;2024-01-07T08:27:07;10.27;;;8.57;;
359;SDS011;168;48.872;9.226;2024-01-07T08:29:34;9.20;;;7.20;;
359;SDS011;168;48.872;9.226;2024-01-07T08:32:02;11.20;;;8.53;;
359;SDS011;168;48.872;9.226;2024-01-07T08:34:30;10.40;;;8.40;;
359;SDS011;168;48.872;9.226;2024-01-07T08:36:57;11.13;;;8.07;;
359;SDS011;168;48.872;9.226;2024-01-07T08:39:26;10.60;;;8.23;;
359;SDS011;168;48.872;9.226;2024-01-07T08:41:54;11.00;;;7.67;;
359;SDS011;168;48.872;9.226;2024-01-07T08:44:22;8.80;;;6.50;;
359;SDS011;168;48.872;9.226;2024-01-07T08:46:49;8.00;;;6.10;;
359;SDS011;168;48.872;9.226;2024-01-07T08:49:16;6.30;;;5.33;;
359;SDS011;168;48.872;9.226;2024-01-07T08:51:44;7.83;;;6.00;;
359;SDS011;168;48.872;9.226;2024-01-07T08:54:11;7.20;;;5.83;;
359;SDS011;168;48.872;9.226;2024-01-07T08:56:40;6.07;;;5.27;;
359;SDS011;168;48.872;9.226;2024-01-07T08:59:07;6.33;;;4.40;;
359;SDS011;168;48.872;9.226;2024-01-07T09:01:34;6.20;;;5.03;;
359;SDS011;168;48.872;9.226;2024-01-07T09:04:01;6.70;;;5.47;;
359;SDS011;168;48.872;9.226;2024-01-07T09:06:29;6.67;;;5.43;;
359;SDS011;168;48.872;9.226;2024-01-07T09:08:57;6.80;;;5.10;;
359;SDS011;168;48.872;9.226;2024-01-07T09:11:25;6.37;;;5.37;;
359;SDS011;168;48.872;9.226;2024-01-07T09:13:53;7.43;;;5.83;;
359;SDS011;168;48.872;9.226;2024-01-07T09:16:21;5.50;;;4.67;;
359;SDS011;168;48.872;9.226;2024-01-07T09:18:48;6.03;;;5.37;;
359;SDS011;168;48.872;9.226;2024-01-07T09:21:16;6.37;;;5.27;;
359;SDS011;168;48.872;9.226;2024-01-07T09:23:44;6.30;;;5.60;;
359;SDS011;168;48.872;9.226;2024-01-07T09:26:11;7.17;;;5.53;;
359;SDS011;168;48.872;9.226;2024-01-07T09:28:38;6.43;;;5.20;;
359;SDS011;168;48.872;9.226;2024-01-07T09:31:09;8.13;;;5.67;;
359;SDS011;168;48.872;9.226;2024-01-07T09:33:36;6.90;;;4.53;;
359;SDS011;168;48.872;9.226;2024-01-07T09:36:04;6.03;;;5.40;;
359;SDS011;168;48.872;9.226;2024-01-07T09:38:33;7.03;;;5.47;;
359;SDS011;168;48.872;9.226;2024-01-07T09:41:00;5.93;;;5.33;;
359;SDS011;168;48.872;9.226;2024-01-07T09:43:28;6.37;;;5.67;;
359;SDS011;168;48.872;9.226;2024-01-07T09:45:55;6.23;;;5.63;;
359;SDS011;168;48.872;9.226;2024-01-07T09:48:25;6.60;;;5.80;;
359;SDS011;168;48.872;9.226;2024-01-07T09:50:52;9.00;;;6.47;;
359;SDS011;168;48.872;9.226;2024-01-07T09:53:20;8.00;;;6.40;;
359;SDS011;168;48.872;9.226;2024-01-07T09:55:52;8.00;;;6.47;;
359;SDS011;168;48.872;9.226;2024-01-07T09:58:24;7.57;;;6.73;;
359;SDS011;168;48.872;9.226;2024-01-07T10:00:52;7.20;;;5.97;;
359;SDS011;168;48.872;9.226;2024-01-07T10:03:19;6.90;;;5.20;;
359;SDS011;168;48.872;9.226;2024-01-07T10:05:48;6.13;;;5.40;;
359;SDS011;168;48.872;9.226;2024-01-07T10:08:15;7.93;;;5.60;;
359;SDS011;168;48.872;9.226;2024-01-07T10:10:43;8.03;;;5.80;;
359;SDS011;168;48.872;9.226;2024-01-07T10:13:10;7.53;;;6.43;;
359;SDS011;168;48.872;9.226;2024-01-07T10:15:37;6.93;;;5.60;;
359;SDS011;168;48.872;9.226;2024-01-07T10:18:06;7.70;;;6.17;;
359;SDS011;168;48.872;9.226;2024-01-07T10:20:34;7.57;;;5.50;;
359;SDS011;168;48.872;9.226;2024-01-07T10:23:03;7.83;;;5.90;;
359;SDS011;168;48.872;9.226;2024-01-07T10:25:33;8.63;;;7.20;;
359;SDS011;168;48.872;9.226;2024-01-07T10:28:01;7.80;;;7.00;;
359;SDS011;168;48.872;9.226;2024-01-07T10:30:29;7.03;;;5.67;;
359;SDS011;168;48.872;9.226;2024-01-07T10:32:57;9.00;;;6.87;;
359;SDS011;168;48.872;9.226;2024-01-07T10:35:27;9.13;;;6.43;;
359;SDS011;168;48.872;9.226;2024-01-07T10:37:55;7.77;;;6.50;;
359;SDS011;168;48.872;9.226;2024-01-07T10:40:24;7.90;;;6.57;;
359;SDS011;168;48.872;9.226;2024-01-07T10:42:53;8.80;;;6.93;;
359;SDS011;168;48.872;9.226;2024-01-07T10:45:22;7.70;;;6.43;;
359;SDS011;168;48.872;9.226;2024-01-07T10:47:49;8.93;;;6.87;;
359;SDS011;168;48.872;9.226;2024-01-07T10:50:21;7.00;;;5.50;;
359;SDS011;168;48.872;9.226;2024-01-07T10:52:49;6.40;;;5.57;;
359;SDS011;168;48.872;9.226;2024-01-07T10:55:20;6.30;;;5.40;;
359;SDS011;168;48.872;9.226;2024-01-07T10:57:50;6.00;;;5.37;;
359;SDS011;168;48.872;9.226;2024-01-07T11:00:20;7.87;;;7.07;;
359;SDS011;168;48.872;9.226;2024-01-07T11:02:52;7.70;;;6.90;;
359;SDS011;168;48.872;9.226;2024-01-07T11:05:29;7.40;;;6.10;;
359;SDS011;168;48.872;9.226;2024-01-07T11:08:02;7.77;;;6.27;;
359;SDS011;168;48.872;9.226;2024-01-07T11:10:35;8.57;;;6.53;;
359;SDS011;168;48.872;9.226;2024-01-07T11:13:09;8.20;;;6.50;;
359;SDS011;168;48.872;9.226;2024-01-07T11:15:52;8.20;;;6.50;;
359;SDS011;168;48.872;9.226;2024-01-07T11:18:20;8.10;;;6.57;;
359;SDS011;168;48.872;9.226;2024-01-07T11:20:48;9.10;;;7.13;;
359;SDS011;168;48.872;9.226;2024-01-07T11:23:25;7.07;;;6.23;;
359;SDS011;168;48.872;9.226;2024-01-07T11:25:54;7.60;;;6.57;;
359;SDS011;168;48.872;9.226;2024-01-07T11:31:14;7.07;;;6.37;;
359;SDS011;168;48.872;9.226;2024-01-07T11:33:43;8.53;;;7.73;;
359;SDS011;168;48.872;9.226;2024-01-07T11:36:11;8.07;;;6.60;;
359;SDS011;168;48.872;9.226;2024-01-07T11:38:42;10.80;;;9.70;;
359;SDS011;168;48.872;9.226;2024-01-07T11:41:11;8.47;;;7.13;;
359;SDS011;168;48.872;9.226;2024-01-07T11:43:52;11.97;;;9.87;;
359;SDS011;168;48.872;9.226;2024-01-07T11:46:21;8.90;;;7.20;;
359;SDS011;168;48.872;9.226;2024-01-07T11:48:49;8.43;;;7.53;;
359;SDS011;168;48.872;9.226;2024-01-07T11:51:19;8.73;;;7.20;;
359;SDS011;168;48.872;9.226;2024-01-07T11:53:46;8.40;;;7.17;;
359;SDS011;168;48.872;9.226;2024-01-07T11:56:14;8.60;;;7.63;;
359;SDS011;168;48.872;9.226;2024-01-07T11:58:41;8.03;;;6.67;;
359;SDS011;168;48.872;9.226;2024-01-07T12:01:10;8.63;;;7.07;;
359;SDS011;168;48.872;9.226;2024-01-07T12:03:37;9.17;;;7.57;;
359;SDS011;168;48.872;9.226;2024-01-07T12:06:06;8.70;;;7.80;;
359;SDS011;168;48.872;9.226;2024-01-07T12:08:36;9.77;;;7.90;;
359;SDS011;168;48.872;9.226;2024-01-07T12:11:04;8.20;;;7.37;;
359;SDS011;168;48.872;9.226;2024-01-07T12:13:32;9.97;;;8.73;;
359;SDS011;168;48.872;9.226;2024-01-07T12:15:59;7.70;;;6.90;;
359;SDS011;168;48.872;9.226;2024-01-07T12:18:28;9.13;;;7.70;;
359;SDS011;168;48.872;9.226;2024-01-07T12:20:58;11.77;;;8.67;;
359;SDS011;168;48.872;9.226;2024-01-07T12:23:25;10.13;;;8.30;;
359;SDS011;168;48.872;9.226;2024-01-07T12:25:53;9.70;;;7.73;;
359;SDS011;168;48.872;9.226;2024-01-07T12:28:21;9.17;;;7.80;;
359;SDS011;168;48.872;9.226;2024-01-07T12:30:49;9.40;;;7.30;;
359;SDS011;168;48.872;9.226;2024-01-07T12:33:17;10.77;;;9.50;;
359;SDS011;168;48.872;9.226;2024-01-07T12:35:47;11.10;;;9.40;;
359;SDS011;168;48.872;9.226;2024-01-07T12:38:14;11.00;;;9.80;;
359;SDS011;168;48.872;9.226;2024-01-07T12:40:42;11.40;;;9.33;;
359;SDS011;168;48.872;9.226;2024-01-07T12:43:09;11.20;;;9.00;;
359;SDS011;168;48.872;9.226;2024-01-07T12:45:36;12.33;;;9.53;;
359;SDS011;168;48.872;9.226;2024-01-07T12:48:04;11.07;;;9.70;;
359;SDS011;168;48.872;9.226;2024-01-07T12:50:32;13.13;;;10.67;;
359;SDS011;168;48.872;9.226;2024-01-07T12:53:01;12.03;;;10.00;;
359;SDS011;168;48.872;9.226;2024-01-07T12:55:28;11.60;;;9.73;;
359;SDS011;168;48.872;9.226;2024-01-07T12:57:56;11.93;;;10.63;;
359;SDS011;168;48.872;9.226;2024-01-07T13:00:23;11.60;;;9.50;;
359;SDS011;168;48.872;9.226;2024-01-07T13:02:52;10.53;;;9.10;;
359;SDS011;168;48.872;9.226;2024-01-07T13:05:19;13.93;;;11.40;;
359;SDS011;168;48.872;9.226;2024-01-07T13:07:47;12.53;;;10.43;;
359;SDS011;168;48.872;9.226;2024-01-07T13:10:16;13.77;;;10.70;;
359;SDS011;168;48.872;9.226;2024-01-07T13:12:44;11.93;;;10.17;;
359;SDS011;168;48.872;9.226;2024-01-07T13:15:10;13.03;;;9.73;;
359;SDS011;168;48.872;9.226;2024-01-07T13:17:38;12.27;;;10.13;;
359;SDS011;168;48.872;9.226;2024-01-07T13:20:06;11.07;;;9.23;;
359;SDS011;168;48.872;9.226;2024-01-07T13:22:37;13.67;;;11.27;;
359;SDS011;168;48.872;9.226;2024-01-07T13:25:05;11.33;;;9.73;;
359;SDS011;168;48.872;9.226;2024-01-07T13:27:34;14.83;;;10.97;;
359;SDS011;168;48.872;9.226;2024-01-07T13:30:02;11.93;;;9.37;;
359;SDS011;168;48.872;9.226;2024-01-07T13:32:30;12.37;;;9.33;;
359;SDS011;168;48.872;9.226;2024-01-07T13:35:01;15.10;;;11.60;;
359;SDS011;168;48.872;9.226;2024-01-07T13:37:29;15.07;;;12.00;;
359;SDS011;168;48.872;9.226;2024-01-07T13:39:57;13.93;;;11.43;;
359;SDS011;168;48.872;9.226;2024-01-07T13:42:24;14.30;;;11.80;;
359;SDS011;168;48.872;9.226;2024-01-07T13:44:53;14.57;;;11.93;;
359;SDS011;168;48.872;9.226;2024-01-07T13:47:20;12.30;;;11.00;;
359;SDS011;168;48.872;9.226;2024-01-07T13:49:48;12.90;;;10.43;;
359;SDS011;168;48.872;9.226;2024-01-07T13:52:15;13.53;;;10.27;;
359;SDS011;168;48.872;9.226;2024-01-07T13:54:43;13.67;;;10.90;;
359;SDS011;168;48.872;9.226;2024-01-07T13:57:10;12.13;;;10.37;;
359;SDS011;168;48.872;9.226;2024-01-07T14:02:33;13.90;;;10.70;;
359;SDS011;168;48.872;9.226;2024-01-07T14:05:04;14.20;;;10.70;;
359;SDS011;168;48.872;9.226;2024-01-07T14:07:35;12.70;;;10.70;;
359;SDS011;168;48.872;9.226;2024-01-07T14:10:02;13.20;;;9.90;;
359;SDS011;168;48.872;9.226;2024-01-07T14:12:31;11.90;;;9.93;;
359;SDS011;168;48.872;9.226;2024-01-07T14:14:59;14.50;;;11.57;;
359;SDS011;168;48.872;9.226;2024-01-07T14:17:28;13.23;;;10.30;;
359;SDS011;168;48.872;9.226;2024-01-07T14:19:56;12.70;;;10.03;;
359;SDS011;168;48.872;9.226;2024-01-07T14:22:23;13.77;;;11.57;;
359;SDS011;168;48.872;9.226;2024-01-07T14:24:50;12.73;;;10.10;;
359;SDS011;168;48.872;9.226;2024-01-07T14:27:18;12.10;;;10.00;;
359;SDS011;168;48.872;9.226;2024-01-07T14:29:45;11.73;;;10.23;;
359;SDS011;168;48.872;9.226;2024-01-07T14:32:13;14.87;;;11.60;;
359;SDS011;168;48.872;9.226;2024-01-07T14:34:42;15.77;;;12.03;;
359;SDS011;168;48.872;9.226;2024-01-07T14:37:09;15.87;;;10.90;;
359;SDS011;168;48.872;9.226;2024-01-07T14:39:37;12.60;;;10.00;;
359;SDS011;168;48.872;9.226;2024-01-07T14:42:04;11.87;;;9.77;;
359;SDS011;168;48.872;9.226;2024-01-07T14:44:32;13.07;;;10.53;;
359;SDS011;168;48.872;9.226;2024-01-07T14:46:59;12.53;;;9.30;;
359;SDS011;168;48.872;9.226;2024-01-07T14:49:27;11.83;;;9.93;;
359;SDS011;168;48.872;9.226;2024-01-07T14:51:55;13.33;;;10.30;;
359;SDS011;168;48.872;9.226;2024-01-07T14:54:23;12.83;;;10.37;;
359;SDS011;168;48.872;9.226;2024-01-07T14:56:50;14.87;;;11.10;;
359;SDS011;168;48.872;9.226;2024-01-07T14:59:17;13.60;;;11.00;;
359;SDS011;168;48.872;9.226;2024-01-07T15:01:45;16.10;;;11.27;;
359;SDS011;168;48.872;9.226;2024-01-07T15:04:12;13.70;;;10.83;;
359;SDS011;168;48.872;9.226;2024-01-07T15:06:40;14.87;;;10.60;;
359;SDS011;168;48.872;9.226;2024-01-07T15:09:10;14.67;;;11.43;;
359;SDS011;168;48.872;9.226;2024-01-07T15:11:39;12.90;;;10.67;;
359;SDS011;168;48.872;9.226;2024-01-07T15:14:08;14.67;;;12.07;;
359;SDS011;168;48.872;9.226;2024-01-07T15:16:35;13.57;;;11.20;;
359;SDS011;168;48.872;9.226;2024-01-07T15:19:03;13.10;;;10.13;;
359;SDS011;168;48.872;9.226;2024-01-07T15:21:30;16.07;;;11.50;;
359;SDS011;168;48.872;9.226;2024-01-07T15:23:58;13.60;;;11.50;;
359;SDS011;168;48.872;9.226;2024-01-07T15:26:26;14.50;;;10.90;;
359;SDS011;168;48.872;9.226;2024-01-07T15:28:54;15.23;;;11.33;;
359;SDS011;168;48.872;9.226;2024-01-07T15:31:21;12.77;;;10.37;;
359;SDS011;168;48.872;9.226;2024-01-07T15:33:49;13.90;;;11.80;;
359;SDS011;168;48.872;9.226;2024-01-07T15:36:16;13.37;;;10.10;;